EST,Max TemperatureF,Mean TemperatureF,Min TemperatureF,Max Dew PointF,MeanDew PointF,Min DewpointF,Max Humidity, Mean Humidity, Min Humidity, Max Sea Level PressureIn, Mean Sea Level PressureIn, Min Sea Level PressureIn, Max VisibilityMiles, Mean VisibilityMiles, Min VisibilityMiles, Max Wind SpeedMPH, Mean Wind SpeedMPH, Max Gust SpeedMPH,PrecipitationIn, CloudCover, Events, WindDirDegrees
2013-12-1,40,37,33,29,27,25,75,67,59,30.19,30.07,29.98,10,10,8,14,7,14,0.00,6,,204
2013-12-2,40,36,32,34,31,28,92,81,70,29.96,29.91,29.87,10,6,2,7,2,7,0.00,7,,5
2013-12-3,52,42,32,40,35,30,100,82,63,29.93,29.89,29.86,8,6,3,8,4,8,0.02,7,Rain-Snow,71
2013-12-4,59,51,42,48,43,38,86,74,62,29.96,29.89,29.81,10,8,5,14,7,14,0.00,7,,164
2013-12-5,60,47,34,56,46,32,89,81,72,30.10,29.89,29.78,10,8,4,16,12,16,0.06,7,Rain-Snow,244
2013-12-6,34,30,26,32,28,25,96,91,85,30.34,30.20,30.09,8,3,0,10,8,10,0.27,8,Rain-Snow,340
2013-12-7,28,22,15,25,17,12,96,80,63,30.62,30.51,30.34,10,9,5,14,7,14,0.01,6,Snow,315
2013-12-8,32,23,14,28,15,9,92,70,48,30.60,30.36,30.04,10,9,2,16,8,16,T,7,Snow,94
2013-12-9,34,30,26,34,27,18,100,84,68,30.15,30.04,29.91,10,6,1,21,13,21,0.02,8,Snow,226
2013-12-10,26,23,20,18,13,8,84,67,50,30.28,30.12,30.04,10,8,1,21,13,21,0.08,6,Snow,248
2013-12-11,24,21,17,19,13,8,84,73,62,30.43,30.32,30.22,10,6,1,19,12,19,0.01,6,Snow,256
2013-12-12,19,14,9,7,2,-2,76,59,42,30.49,30.40,30.27,10,10,10,21,11,21,T,4,,252
2013-12-13,30,23,16,18,10,2,65,59,53,30.28,30.25,30.22,10,10,10,16,7,16,0.00,7,,228
2013-12-14,35,31,26,36,28,18,100,82,63,30.25,29.95,29.64,5,2,0,9,7,9,0.48,8,Rain-Snow,120
2013-12-15,34,25,15,34,21,9,96,85,73,30.08,29.86,29.64,7,4,0,22,13,22,0.03,8,Snow,267
2013-12-16,26,19,11,20,11,7,88,74,59,30.20,30.12,30.02,10,8,1,12,8,12,0.05,6,Snow,219
2013-12-17,28,25,22,27,23,19,96,87,78,30.07,29.99,29.92,10,4,0,15,8,15,0.06,8,Snow,239
2013-12-18,28,26,23,22,19,15,88,76,63,30.19,30.13,30.04,10,9,2,18,13,18,T,7,Snow,229
2013-12-19,44,36,28,33,23,15,70,58,45,30.09,30.04,29.99,10,10,10,16,11,16,0.00,6,,214
2013-12-20,54,48,41,53,41,28,100,75,49,29.97,29.90,29.85,10,7,2,17,13,17,0.24,8,Rain,207
2013-12-21,62,54,46,60,52,45,100,97,93,29.84,29.75,29.49,8,3,1,21,12,21,1.17,8,Rain,196
2013-12-22,64,55,45,60,49,40,93,77,60,29.97,29.72,29.44,10,8,1,28,18,28,0.68,8,Rain,230
2013-12-23,45,37,28,37,27,18,92,78,63,30.32,30.17,29.97,10,9,2,18,13,18,0.02,8,Rain-Snow,289
2013-12-24,28,22,15,21,14,7,92,80,67,30.56,30.41,30.24,10,5,1,18,10,18,0.05,8,Snow,272
2013-12-25,28,20,11,19,11,7,88,70,51,30.53,30.39,30.19,10,10,10,14,7,14,0.00,7,,191
2013-12-26,33,30,26,25,20,14,85,68,51,30.35,30.23,30.12,10,9,3,24,12,24,T,6,Snow,242
2013-12-27,44,36,27,28,24,18,72,61,49,30.36,30.30,30.23,10,10,8,16,10,16,0.00,5,,209
2013-12-28,52,44,35,31,27,24,72,57,42,30.22,30.15,30.02,10,10,10,16,12,16,0.00,4,,214
2013-12-29,42,35,28,39,31,23,96,73,50,30.00,29.83,29.71,10,6,2,17,8,17,0.18,8,Rain,224
2013-12-30,28,24,20,25,16,11,88,74,60,30.25,30.14,29.95,10,7,2,14,8,14,0.01,8,Snow,325
2013-12-31,23,20,17,19,15,11,88,78,67,30.33,30.22,30.03,10,6,2,21,12,21,0.05,7,Snow,245